createdAt,value
2019-05-25T00:00:54.457Z,12.00
2019-05-25T00:03:22.892Z,12.00
2019-05-25T00:05:51.369Z,11.80
2019-05-25T00:08:20.073Z,11.70
2019-05-25T00:10:48.491Z,11.70
2019-05-25T00:13:16.994Z,11.70
2019-05-25T00:15:45.499Z,11.70
2019-05-25T00:18:13.934Z,11.80
2019-05-25T00:20:42.354Z,11.80
2019-05-25T00:23:10.801Z,11.80
2019-05-25T00:25:39.317Z,11.70
2019-05-25T00:28:07.824Z,11.60
2019-05-25T00:30:36.254Z,11.70
2019-05-25T00:33:04.691Z,11.50
2019-05-25T00:35:33.309Z,11.40
2019-05-25T00:38:01.783Z,11.30
2019-05-25T00:40:30.290Z,11.30
2019-05-25T00:42:58.722Z,11.20
2019-05-25T00:45:27.144Z,11.20
2019-05-25T00:47:58.339Z,11.00
2019-05-25T00:50:27.476Z,11.00
2019-05-25T00:52:56.537Z,11.00
2019-05-25T00:55:27.549Z,11.10
2019-05-25T00:57:57.675Z,10.80
2019-05-25T01:00:28.263Z,10.70
2019-05-25T01:02:57.304Z,10.60
2019-05-25T01:05:26.667Z,10.80
2019-05-25T01:07:56.116Z,10.90
2019-05-25T01:10:24.950Z,10.70
2019-05-25T01:12:53.780Z,10.70
2019-05-25T01:15:24.076Z,10.90
2019-05-25T01:17:54.310Z,10.80
2019-05-25T01:20:23.948Z,10.80
2019-05-25T01:22:52.806Z,10.90
2019-05-25T01:25:21.818Z,10.90
2019-05-25T01:27:50.596Z,11.00
2019-05-25T01:30:21.244Z,10.90
2019-05-25T01:36:38.577Z,10.90
2019-05-25T01:39:09.876Z,10.90
2019-05-25T01:41:39.471Z,10.80
2019-05-25T01:44:09.119Z,10.70
2019-05-25T01:46:38.200Z,10.70
2019-05-25T01:49:08.100Z,10.60
2019-05-25T01:51:37.913Z,10.60
2019-05-25T01:54:07.224Z,10.60
2019-05-25T01:56:36.931Z,10.70
2019-05-25T01:59:05.894Z,10.80
2019-05-25T02:01:35.066Z,10.80
2019-05-25T02:04:04.214Z,10.80
2019-05-25T02:06:33.317Z,10.70
2019-05-25T02:09:03.107Z,10.60
2019-05-25T02:11:32.286Z,10.50
2019-05-25T02:14:02.024Z,10.30
2019-05-25T02:16:31.912Z,10.30
2019-05-25T02:19:01.762Z,10.30
2019-05-25T02:21:31.991Z,10.40
2019-05-25T02:24:01.578Z,10.30
2019-05-25T02:26:30.742Z,10.20
2019-05-25T02:29:00.306Z,10.30
2019-05-25T02:31:30.491Z,10.30
2019-05-25T02:33:59.908Z,10.40
2019-05-25T02:36:29.432Z,10.40
2019-05-25T02:38:58.847Z,10.40
2019-05-25T02:41:28.058Z,10.30
2019-05-25T02:43:57.415Z,10.20
2019-05-25T02:46:26.675Z,10.30
2019-05-25T02:48:56.130Z,10.30
2019-05-25T02:51:25.981Z,10.30
2019-05-25T02:53:55.256Z,10.30
2019-05-25T02:56:25.079Z,10.40
2019-05-25T02:58:54.363Z,10.30
2019-05-25T03:01:24.808Z,10.30
2019-05-25T03:03:54.336Z,10.20
2019-05-25T03:06:23.894Z,10.30
2019-05-25T03:08:54.065Z,10.30
2019-05-25T03:11:23.656Z,10.30
2019-05-25T03:13:53.079Z,10.40
2019-05-25T03:16:22.365Z,10.40
2019-05-25T03:18:53.087Z,10.30
2019-05-25T03:21:23.422Z,10.30
2019-05-25T03:23:53.037Z,10.40
2019-05-25T03:26:23.187Z,10.50
2019-05-25T03:28:52.476Z,10.40
2019-05-25T03:31:22.015Z,10.40
2019-05-25T03:33:51.764Z,10.40
2019-05-25T03:36:21.248Z,10.40
2019-05-25T03:38:50.575Z,10.40
2019-05-25T03:41:19.755Z,10.40
2019-05-25T03:53:17.164Z,10.90
2019-05-25T03:55:46.577Z,10.90
2019-05-25T03:58:15.595Z,11.00
2019-05-25T04:00:44.668Z,10.90
2019-05-25T04:03:14.267Z,10.90
2019-05-25T04:05:44.014Z,10.70
2019-05-25T04:08:13.725Z,10.50
2019-05-25T04:10:43.013Z,10.70
2019-05-25T04:13:12.135Z,10.80
2019-05-25T04:15:43.231Z,11.00
2019-05-25T04:18:12.979Z,11.10
2019-05-25T04:20:42.278Z,11.20
2019-05-25T04:23:11.505Z,11.20
2019-05-25T04:25:40.880Z,11.30
2019-05-25T04:28:10.278Z,11.30
2019-05-25T04:30:39.631Z,11.30
2019-05-25T04:33:09.236Z,11.30
2019-05-25T04:35:38.454Z,11.40
2019-05-25T04:38:07.978Z,11.40
2019-05-25T04:40:37.386Z,11.50
2019-05-25T04:43:06.653Z,11.50
2019-05-25T04:45:36.160Z,11.50
2019-05-25T04:48:05.770Z,11.60
2019-05-25T04:50:35.453Z,11.50
2019-05-25T04:53:04.827Z,11.60
2019-05-25T04:55:34.837Z,11.80
2019-05-25T04:58:04.268Z,12.00
2019-05-25T05:00:33.951Z,12.00
2019-05-25T05:03:03.572Z,11.90
2019-05-25T05:05:32.539Z,11.90
2019-05-25T05:08:01.708Z,11.80
2019-05-25T05:10:31.089Z,11.80
2019-05-25T05:13:00.477Z,11.70
2019-05-25T05:15:30.061Z,11.60
2019-05-25T05:17:59.815Z,11.50
2019-05-25T05:20:29.108Z,11.50
2019-05-25T05:22:58.794Z,11.70
2019-05-25T05:25:28.470Z,11.50
2019-05-25T05:27:57.583Z,11.70
2019-05-25T05:30:34.376Z,11.60
2019-05-25T05:33:03.820Z,11.90
2019-05-25T05:35:33.989Z,12.00
2019-05-25T05:38:05.900Z,11.80
2019-05-25T05:40:36.061Z,12.00
2019-05-25T05:43:08.413Z,12.10
2019-05-25T05:45:43.009Z,12.20
2019-05-25T05:48:13.191Z,12.30
2019-05-25T05:50:42.422Z,12.10
2019-05-25T05:53:11.625Z,12.10
2019-05-25T05:55:41.024Z,12.10
2019-05-25T05:58:10.362Z,12.20
2019-05-25T06:00:39.788Z,12.40
2019-05-25T06:03:08.946Z,12.10
2019-05-25T06:05:38.891Z,11.90
2019-05-25T06:08:07.960Z,11.90
2019-05-25T06:10:37.002Z,11.90
2019-05-25T06:13:06.193Z,11.90
2019-05-25T06:15:35.426Z,11.90
2019-05-25T06:18:07.826Z,12.00
2019-05-25T06:20:46.473Z,11.90
2019-05-25T06:23:17.521Z,11.90
2019-05-25T06:25:47.450Z,12.00
2019-05-25T06:28:19.068Z,12.10
2019-05-25T06:30:48.336Z,12.30
2019-05-25T06:33:17.846Z,12.30
2019-05-25T06:35:47.478Z,12.20
2019-05-25T06:38:17.865Z,12.30
2019-05-25T06:40:52.297Z,12.30
2019-05-25T06:43:30.395Z,12.40
2019-05-25T06:46:06.674Z,12.50
2019-05-25T06:48:42.381Z,12.50
2019-05-25T07:06:51.011Z,12.80
2019-05-25T07:09:17.648Z,12.80
2019-05-25T07:11:50.002Z,12.90
2019-05-25T07:14:25.160Z,12.90
2019-05-25T07:16:54.932Z,13.00
2019-05-25T07:19:24.306Z,13.00
2019-05-25T07:21:53.870Z,13.00
2019-05-25T07:24:23.194Z,13.10
2019-05-25T07:26:52.811Z,13.00
2019-05-25T07:29:22.452Z,13.00
2019-05-25T07:31:52.416Z,13.00
2019-05-25T07:34:22.109Z,13.00
2019-05-25T07:36:51.869Z,13.10
2019-05-25T07:39:21.338Z,13.10
2019-05-25T07:41:51.242Z,13.10
2019-05-25T07:44:21.882Z,13.20
2019-05-25T07:46:51.361Z,13.10
2019-05-25T07:49:20.477Z,13.10
2019-05-25T07:51:50.035Z,13.20
2019-05-25T07:54:19.128Z,13.20
2019-05-25T07:56:50.924Z,13.30
2019-05-25T07:59:20.059Z,13.30
2019-05-25T08:01:49.357Z,13.20
2019-05-25T08:04:18.241Z,13.00
2019-05-25T08:06:47.976Z,13.00
2019-05-25T08:09:17.142Z,13.10
2019-05-25T08:11:46.699Z,13.10
2019-05-25T08:14:16.351Z,13.20
2019-05-25T08:16:45.957Z,13.30
2019-05-25T08:19:15.479Z,13.20
2019-05-25T08:21:45.518Z,13.20
2019-05-25T08:24:18.235Z,13.10
2019-05-25T08:31:11.685Z,12.90
2019-05-25T08:33:41.078Z,13.00
2019-05-25T08:36:10.167Z,13.10
2019-05-25T08:38:39.591Z,13.20
2019-05-25T08:41:09.012Z,13.30
2019-05-25T08:43:38.253Z,13.30
2019-05-25T08:46:07.570Z,13.10
2019-05-25T08:48:36.569Z,13.00
2019-05-25T08:51:05.703Z,13.00
2019-05-25T08:53:41.642Z,12.90
2019-05-25T09:03:20.067Z,13.70
2019-05-25T09:27:26.870Z,16.90
2019-05-25T09:33:23.834Z,17.40
2019-05-25T09:35:52.783Z,17.50
2019-05-25T09:38:21.907Z,17.70
2019-05-25T09:40:50.818Z,17.80
2019-05-25T09:43:19.719Z,17.80
2019-05-25T09:45:48.905Z,18.00
2019-05-25T09:48:17.842Z,18.00
2019-05-25T09:50:46.852Z,18.20
2019-05-25T09:53:15.786Z,18.40
2019-05-25T09:55:44.839Z,18.50
2019-05-25T09:58:13.858Z,18.50
2019-05-25T10:00:42.878Z,18.30
2019-05-25T10:03:11.908Z,18.50
2019-05-25T10:05:40.883Z,18.60
2019-05-25T10:08:10.081Z,18.50
2019-05-25T10:10:39.309Z,18.60
2019-05-25T10:13:08.262Z,18.70
2019-05-25T10:15:37.436Z,19.00
2019-05-25T10:18:06.226Z,19.30
2019-05-25T10:20:35.086Z,19.60
2019-05-25T10:23:04.052Z,19.50
2019-05-25T10:25:33.148Z,19.60
2019-05-25T10:28:01.796Z,20.00
2019-05-25T10:30:30.545Z,20.50
2019-05-25T10:32:59.480Z,20.60
2019-05-25T10:35:28.134Z,20.80
2019-05-25T10:37:57.239Z,21.20
2019-05-25T10:40:25.930Z,21.20
2019-05-25T10:42:54.713Z,21.40
2019-05-25T10:45:23.772Z,21.40
2019-05-25T10:47:52.701Z,20.70
2019-05-25T10:50:22.913Z,21.30
2019-05-25T10:52:51.686Z,21.40
2019-05-25T10:55:20.676Z,21.80
2019-05-25T10:57:49.651Z,22.00
2019-05-25T11:00:20.195Z,22.20
2019-05-25T11:02:49.119Z,22.10
2019-05-25T11:05:18.450Z,22.30
2019-05-25T11:07:47.364Z,22.30
2019-05-25T11:10:16.478Z,22.50
2019-05-25T11:12:47.405Z,22.50
2019-05-25T11:15:20.417Z,22.70
2019-05-25T11:17:51.362Z,22.50
2019-05-25T11:20:20.882Z,22.70
2019-05-25T11:22:53.719Z,22.70
2019-05-25T11:25:22.646Z,23.00
2019-05-25T11:27:51.482Z,23.10
2019-05-25T11:30:20.435Z,23.20
2019-05-25T11:32:49.364Z,23.20
2019-05-25T11:35:20.337Z,23.70
2019-05-25T11:37:49.559Z,23.80
2019-05-25T11:40:38.934Z,23.90
2019-05-25T11:43:07.361Z,23.80
2019-05-25T11:45:35.810Z,23.70
2019-05-25T11:48:04.299Z,23.40
2019-05-25T11:50:32.763Z,23.50
2019-05-25T11:53:05.434Z,23.80
2019-05-25T11:55:31.355Z,23.80
2019-05-25T11:57:59.782Z,23.70
2019-05-25T12:00:28.396Z,23.70
2019-05-25T12:02:57.102Z,24.00
2019-05-25T12:05:25.545Z,24.00
2019-05-25T12:07:53.981Z,24.00
2019-05-25T12:10:22.491Z,24.40
2019-05-25T12:12:50.905Z,24.40
2019-05-25T12:15:19.707Z,24.30
2019-05-25T12:17:48.215Z,24.40
2019-05-25T12:20:17.788Z,24.40
2019-05-25T12:22:46.289Z,24.50
2019-05-25T12:25:16.191Z,24.40
2019-05-25T12:27:48.733Z,24.60
2019-05-25T12:30:15.136Z,24.80
2019-05-25T12:32:43.561Z,24.50
2019-05-25T12:35:12.245Z,24.50
2019-05-25T12:37:40.679Z,24.80
2019-05-25T12:40:09.559Z,24.80
2019-05-25T12:42:38.300Z,24.50
2019-05-25T12:45:07.779Z,24.60
2019-05-25T12:47:36.288Z,24.80
2019-05-25T12:50:09.106Z,24.60
2019-05-25T12:52:37.541Z,23.90
2019-05-25T12:55:06.820Z,23.70
2019-05-25T12:57:35.411Z,23.60
2019-05-25T13:00:15.402Z,23.80
2019-05-25T13:02:35.909Z,24.30
2019-05-25T13:05:05.391Z,24.80
2019-05-25T13:07:33.833Z,25.00
2019-05-25T13:10:02.249Z,24.70
2019-05-25T13:12:30.679Z,24.60
2019-05-25T13:14:59.090Z,24.30
2019-05-25T13:17:27.523Z,24.20
2019-05-25T13:19:55.938Z,23.90
2019-05-25T13:22:24.429Z,24.00
2019-05-25T13:24:52.928Z,24.50
2019-05-25T13:27:21.577Z,24.70
2019-05-25T13:29:50.002Z,24.70
2019-05-25T13:32:18.472Z,24.80
2019-05-25T13:34:46.941Z,25.20
2019-05-25T13:37:17.751Z,25.40
2019-05-25T13:39:45.541Z,25.50
2019-05-25T13:42:13.969Z,25.40
2019-05-25T13:44:42.389Z,25.20
2019-05-25T13:47:10.830Z,25.30
2019-05-25T13:49:39.259Z,25.20
2019-05-25T13:52:07.694Z,24.90
2019-05-25T13:54:36.127Z,24.70
2019-05-25T13:57:04.704Z,24.60
2019-05-25T13:59:33.142Z,24.20
2019-05-25T14:02:01.579Z,24.30
2019-05-25T14:04:30.011Z,24.60
2019-05-25T14:06:58.448Z,24.80
2019-05-25T14:09:26.890Z,25.00
2019-05-25T14:11:55.325Z,25.00
2019-05-25T14:14:24.586Z,24.50
2019-05-25T14:16:53.349Z,24.60
2019-05-25T14:19:21.768Z,24.40
2019-05-25T14:21:50.204Z,24.40
2019-05-25T14:24:18.622Z,24.30
2019-05-25T14:26:47.060Z,24.30
2019-05-25T14:29:15.494Z,24.20
2019-05-25T14:31:45.827Z,24.00
2019-05-25T14:34:14.170Z,24.00
2019-05-25T14:36:42.604Z,24.30
2019-05-25T14:39:11.027Z,24.40
2019-05-25T14:41:39.474Z,24.50
2019-05-25T14:44:07.915Z,24.50
2019-05-25T14:46:36.391Z,24.70
2019-05-25T14:49:04.827Z,24.60
2019-05-25T14:51:33.271Z,24.70
2019-05-25T14:54:01.697Z,24.60
2019-05-25T14:56:30.147Z,24.50
2019-05-25T14:58:58.567Z,24.50
2019-05-25T15:01:27.030Z,24.20
2019-05-25T15:03:55.455Z,24.00
2019-05-25T15:06:23.968Z,24.00
2019-05-25T15:08:52.563Z,24.10
2019-05-25T15:11:21.001Z,24.00
2019-05-25T15:13:49.432Z,23.90
2019-05-25T15:16:17.875Z,24.20
2019-05-25T15:18:46.305Z,24.00
2019-05-25T15:21:14.746Z,24.20
2019-05-25T15:23:43.198Z,23.90
2019-05-25T15:26:11.647Z,23.80
2019-05-25T15:28:40.152Z,23.70
2019-05-25T15:31:08.643Z,23.60
2019-05-25T15:33:37.093Z,23.80
2019-05-25T15:36:05.634Z,23.80
2019-05-25T15:38:34.119Z,23.70
2019-05-25T15:41:02.549Z,23.70
2019-05-25T15:43:30.993Z,23.70
2019-05-25T15:45:59.427Z,23.80
2019-05-25T15:48:27.943Z,23.80
2019-05-25T15:50:56.360Z,24.00
2019-05-25T15:53:24.792Z,23.80
2019-05-25T15:55:53.219Z,23.70
2019-05-25T15:58:21.673Z,23.70
2019-05-25T16:00:52.836Z,23.70
2019-05-25T16:03:21.339Z,23.70
2019-05-25T16:05:50.100Z,23.50
2019-05-25T16:08:20.961Z,23.50
2019-05-25T16:10:49.569Z,23.30
2019-05-25T16:13:18.072Z,23.10
2019-05-25T16:15:46.532Z,23.00
2019-05-25T16:18:14.995Z,23.10
2019-05-25T16:20:43.431Z,23.10
2019-05-25T16:23:11.875Z,23.10
2019-05-25T16:25:40.374Z,22.90
2019-05-25T16:28:08.814Z,23.00
2019-05-25T16:30:37.249Z,23.00
2019-05-25T16:33:12.380Z,22.90
2019-05-25T16:35:35.894Z,22.90
2019-05-25T16:38:04.516Z,23.00
2019-05-25T16:40:33.104Z,23.00
2019-05-25T16:43:01.602Z,23.10
2019-05-25T16:45:30.062Z,23.20
2019-05-25T16:47:58.492Z,23.00
2019-05-25T16:50:26.985Z,23.00
2019-05-25T16:52:56.085Z,23.10
2019-05-25T16:55:24.508Z,23.10
2019-05-25T16:57:53.025Z,23.00
2019-05-25T17:00:29.194Z,23.00
2019-05-25T17:02:58.861Z,23.00
2019-05-25T17:05:27.927Z,22.80
2019-05-25T17:07:56.940Z,22.80
2019-05-25T17:10:25.615Z,22.70
2019-05-25T17:12:54.041Z,22.70
2019-05-25T17:15:22.492Z,22.70
2019-05-25T17:17:51.295Z,22.50
2019-05-25T17:20:19.970Z,22.80
2019-05-25T17:22:48.416Z,21.90
2019-05-25T17:25:17.067Z,21.60
2019-05-25T17:27:45.507Z,21.40
2019-05-25T17:30:14.387Z,21.10
2019-05-25T17:32:42.841Z,20.40
2019-05-25T17:35:11.881Z,20.60
2019-05-25T17:37:40.356Z,20.40
2019-05-25T17:40:09.134Z,19.90
2019-05-25T17:42:37.786Z,19.80
2019-05-25T17:45:09.326Z,19.80
2019-05-25T17:47:37.764Z,19.70
2019-05-25T17:50:07.265Z,19.60
2019-05-25T17:52:35.694Z,19.30
2019-05-25T17:55:06.708Z,19.00
2019-05-25T17:57:35.139Z,19.20
2019-05-25T18:00:06.120Z,19.00
2019-05-25T18:02:34.554Z,19.20
2019-05-25T18:05:03.270Z,19.00
2019-05-25T18:07:31.702Z,18.80
2019-05-25T18:10:00.144Z,18.70
2019-05-25T18:12:28.585Z,18.90
2019-05-25T18:14:57.027Z,18.70
2019-05-25T18:17:25.466Z,18.40
2019-05-25T18:19:54.008Z,18.50
2019-05-25T18:22:24.429Z,18.60
2019-05-25T18:24:52.858Z,18.50
2019-05-25T18:27:21.278Z,18.30
2019-05-25T18:29:49.720Z,18.10
2019-05-25T18:32:19.076Z,18.20
2019-05-25T18:34:47.516Z,18.20
2019-05-25T18:37:15.944Z,18.10
2019-05-25T18:39:44.388Z,17.70
2019-05-25T18:42:13.400Z,17.70
2019-05-25T18:44:41.826Z,18.00
2019-05-25T18:47:10.267Z,17.90
2019-05-25T18:49:38.776Z,17.60
2019-05-25T18:52:07.201Z,17.60
2019-05-25T18:54:35.615Z,17.40
2019-05-25T18:57:08.545Z,17.20
2019-05-25T18:59:34.473Z,17.20
2019-05-25T19:02:02.909Z,17.20
2019-05-25T19:04:44.879Z,17.30
2019-05-25T19:07:01.491Z,17.00
2019-05-25T19:09:29.927Z,17.20
2019-05-25T19:11:58.362Z,17.20
2019-05-25T19:14:26.797Z,17.30
2019-05-25T19:16:55.223Z,17.10
2019-05-25T19:19:23.667Z,16.90
2019-05-25T19:21:52.176Z,17.20
2019-05-25T19:24:20.618Z,17.20
2019-05-25T19:26:49.067Z,17.20
2019-05-25T19:29:17.494Z,16.80
2019-05-25T19:31:45.927Z,16.70
2019-05-25T19:34:14.354Z,16.70
2019-05-25T19:36:43.727Z,16.70
2019-05-25T19:39:31.486Z,16.60
2019-05-25T19:41:59.996Z,16.30
2019-05-25T19:44:29.392Z,16.40
2019-05-25T19:46:58.860Z,16.30
2019-05-25T19:49:27.305Z,16.30
2019-05-25T19:51:55.745Z,16.30
2019-05-25T19:54:24.172Z,16.50
2019-05-25T19:56:52.691Z,16.50
2019-05-25T19:59:40.492Z,16.40
2019-05-25T20:02:08.953Z,16.50
2019-05-25T20:04:37.394Z,16.30
2019-05-25T20:07:05.815Z,16.30
2019-05-25T20:09:34.237Z,16.40
2019-05-25T20:12:02.669Z,16.40
2019-05-25T20:14:31.090Z,16.30
2019-05-25T20:16:59.530Z,16.20
2019-05-25T20:19:27.969Z,16.10
2019-05-25T20:21:56.392Z,16.00
2019-05-25T20:24:24.814Z,15.70
2019-05-25T20:26:53.241Z,15.50
2019-05-25T20:29:21.742Z,15.50
2019-05-25T20:31:50.202Z,15.40
2019-05-25T20:34:18.695Z,15.50
2019-05-25T20:36:47.142Z,15.50
2019-05-25T20:39:15.634Z,15.30
2019-05-25T20:41:44.411Z,14.90
2019-05-25T20:44:12.821Z,14.60
2019-05-25T20:46:41.320Z,14.90
2019-05-25T20:49:09.731Z,14.80
2019-05-25T20:51:38.161Z,14.70
2019-05-25T20:54:06.583Z,14.70
2019-05-25T20:56:35.044Z,14.60
2019-05-25T20:59:04.246Z,14.60
2019-05-25T21:01:32.707Z,14.60
2019-05-25T21:04:01.186Z,14.60
2019-05-25T21:06:29.621Z,14.50
2019-05-25T21:08:58.029Z,14.20
2019-05-25T21:11:26.477Z,14.30
2019-05-25T21:13:54.894Z,14.20
2019-05-25T21:16:23.318Z,14.10
2019-05-25T21:18:51.739Z,14.10
2019-05-25T21:21:20.165Z,14.20
2019-05-25T21:23:48.581Z,14.20
2019-05-25T21:26:17.008Z,14.10
2019-05-25T21:28:45.421Z,14.10
2019-05-25T21:31:13.875Z,14.00
2019-05-25T21:33:42.365Z,14.10
2019-05-25T21:36:10.822Z,14.10
2019-05-25T21:38:39.298Z,13.90
2019-05-25T21:41:07.724Z,13.80
2019-05-25T21:43:36.157Z,13.80
2019-05-25T21:46:04.655Z,13.50
2019-05-25T21:48:33.087Z,13.60
2019-05-25T21:51:01.501Z,13.60
2019-05-25T21:53:29.939Z,13.50
2019-05-25T21:55:58.362Z,13.30
2019-05-25T21:58:26.871Z,13.30
2019-05-25T22:00:55.512Z,13.20
2019-05-25T22:03:23.937Z,13.10
2019-05-25T22:05:52.431Z,13.20
2019-05-25T22:08:20.870Z,13.20
2019-05-25T22:10:49.297Z,13.10
2019-05-25T22:13:27.972Z,13.00
2019-05-25T22:15:47.887Z,13.00
2019-05-25T22:18:16.304Z,13.00
2019-05-25T22:20:44.729Z,12.90
2019-05-25T22:23:13.158Z,12.80
2019-05-25T22:25:41.861Z,12.60
2019-05-25T22:28:10.286Z,12.50
2019-05-25T22:30:38.711Z,12.50
2019-05-25T22:33:07.146Z,12.50
2019-05-25T22:35:35.638Z,12.50
2019-05-25T22:38:04.069Z,12.30
2019-05-25T22:40:32.493Z,12.40
2019-05-25T22:43:00.925Z,12.20
2019-05-25T22:45:29.406Z,12.30
2019-05-25T22:47:58.036Z,12.20
2019-05-25T22:50:45.787Z,12.10
2019-05-25T22:53:14.281Z,11.90
2019-05-25T22:55:42.784Z,11.80
2019-05-25T22:58:11.219Z,11.70
2019-05-25T23:00:39.664Z,11.60
2019-05-25T23:03:08.089Z,11.60
2019-05-25T23:05:36.505Z,11.70
2019-05-25T23:08:04.937Z,11.90
2019-05-25T23:10:33.374Z,11.70
2019-05-25T23:13:01.808Z,11.60
2019-05-25T23:15:30.217Z,11.40
2019-05-25T23:17:58.654Z,11.30
2019-05-25T23:20:27.142Z,11.20
2019-05-25T23:22:55.576Z,11.40
2019-05-25T23:25:24.003Z,11.50
2019-05-25T23:27:52.434Z,11.40
2019-05-25T23:30:20.927Z,11.40
2019-05-25T23:32:49.352Z,11.30
2019-05-25T23:35:17.769Z,11.50
2019-05-25T23:37:46.205Z,11.50
2019-05-25T23:40:15.059Z,11.20
2019-05-25T23:42:43.493Z,11.10
2019-05-25T23:45:12.073Z,11.00
2019-05-25T23:47:40.502Z,10.80
2019-05-25T23:50:09.451Z,10.90
2019-05-25T23:52:37.895Z,11.00
2019-05-25T23:55:06.869Z,11.00
2019-05-25T23:57:35.387Z,11.00
